Terminal Aerodrome Forecast
Issued by NWS

Home | Current Version | Previous Version | Text Only | Print | Product List | Glossary On
Versions: 1 2 3 4 5 6 7 8 9 10 11 12 13 14 15
000
FTUS43 KEAX 270500
TAFMKC
TAF
KMKC 270520Z 2706/2806 33008KT P6SM OVC018
     FM271500 VRB04KT P6SM SCT025 BKN080
     FM272100 13005KT P6SM SCT250=

USA.gov is the U.S. government's official web portal to all federal, state and local government web resources and services.